sensor_id;sensor_type;location;lat;lon;timestamp;pressure;altitude;pressure_sealevel;temperature;humidity
84918;BME280;75182;51.736;5.318;2024-03-29T00:05:25;99136.31;;;15.09;45.03
84918;BME280;75182;51.736;5.318;2024-03-29T00:15:26;99127.03;;;15.16;43.37
84918;BME280;75182;51.736;5.318;2024-03-29T00:25:26;99137.13;;;15.11;44.76
84918;BME280;75182;51.736;5.318;2024-03-29T00:35:27;99149.69;;;15.12;44.76
84918;BME280;75182;51.736;5.318;2024-03-29T00:45:27;99151.50;;;15.11;44.01
84918;BME280;75182;51.736;5.318;2024-03-29T00:55:28;99181.25;;;15.10;44.94
84918;BME280;75182;51.736;5.318;2024-03-29T01:05:29;99179.44;;;15.10;43.13
84918;BME280;75182;51.736;5.318;2024-03-29T01:15:29;99152.59;;;15.06;44.53
84918;BME280;75182;51.736;5.318;2024-03-29T01:25:29;99141.81;;;15.06;44.29
84918;BME280;75182;51.736;5.318;2024-03-29T01:35:30;99133.69;;;15.06;43.84
84918;BME280;75182;51.736;5.318;2024-03-29T01:45:31;99098.75;;;15.03;44.17
84918;BME280;75182;51.736;5.318;2024-03-29T01:55:31;99087.09;;;15.02;44.40
84918;BME280;75182;51.736;5.318;2024-03-29T02:05:31;99114.94;;;15.03;43.73
84918;BME280;75182;51.736;5.318;2024-03-29T02:15:32;99116.91;;;14.98;43.91
84918;BME280;75182;51.736;5.318;2024-03-29T02:25:32;99125.09;;;14.96;44.29
84918;BME280;75182;51.736;5.318;2024-03-29T02:35:33;99130.47;;;14.96;44.94
84918;BME280;75182;51.736;5.318;2024-03-29T02:45:33;99147.59;;;14.95;43.38
84918;BME280;75182;51.736;5.318;2024-03-29T02:55:33;99142.28;;;14.94;44.58
84918;BME280;75182;51.736;5.318;2024-03-29T03:05:34;99154.00;;;14.93;44.38
84918;BME280;75182;51.736;5.318;2024-03-29T03:15:34;99167.50;;;14.93;44.43
84918;BME280;75182;51.736;5.318;2024-03-29T03:25:34;99155.97;;;14.88;44.51
84918;BME280;75182;51.736;5.318;2024-03-29T03:35:34;99157.78;;;14.87;44.16
84918;BME280;75182;51.736;5.318;2024-03-29T03:45:36;99149.88;;;14.82;43.84
84918;BME280;75182;51.736;5.318;2024-03-29T03:55:37;99182.34;;;14.79;44.77
84918;BME280;75182;51.736;5.318;2024-03-29T04:05:37;99200.28;;;14.80;45.43
84918;BME280;75182;51.736;5.318;2024-03-29T04:15:37;99215.53;;;14.81;45.91
84918;BME280;75182;51.736;5.318;2024-03-29T04:25:38;99229.88;;;14.83;46.69
84918;BME280;75182;51.736;5.318;2024-03-29T04:35:38;99198.44;;;14.82;46.97
84918;BME280;75182;51.736;5.318;2024-03-29T04:45:38;99211.00;;;14.83;47.80
84918;BME280;75182;51.736;5.318;2024-03-29T04:55:39;99224.38;;;14.86;47.92
84918;BME280;75182;51.736;5.318;2024-03-29T05:05:39;99212.81;;;14.83;48.21
84918;BME280;75182;51.736;5.318;2024-03-29T05:15:39;99229.69;;;14.88;49.24
84918;BME280;75182;51.736;5.318;2024-03-29T05:25:40;99245.00;;;14.88;48.82
84918;BME280;75182;51.736;5.318;2024-03-29T05:35:41;99219.09;;;14.83;49.05
84918;BME280;75182;51.736;5.318;2024-03-29T05:45:41;99226.13;;;14.88;49.26
84918;BME280;75182;51.736;5.318;2024-03-29T05:55:41;99231.63;;;14.84;49.24
84918;BME280;75182;51.736;5.318;2024-03-29T06:05:42;99240.59;;;14.85;49.03
84918;BME280;75182;51.736;5.318;2024-03-29T06:15:42;99247.81;;;14.84;49.23
84918;BME280;75182;51.736;5.318;2024-03-29T06:26:01;99247.72;;;14.88;49.23
84918;BME280;75182;51.736;5.318;2024-03-29T06:36:01;99263.19;;;14.82;50.09
84918;BME280;75182;51.736;5.318;2024-03-29T06:46:02;99257.69;;;14.85;50.49
84918;BME280;75182;51.736;5.318;2024-03-29T06:56:03;99226.91;;;14.91;50.43
84918;BME280;75182;51.736;5.318;2024-03-29T07:06:04;99254.78;;;14.92;50.04
84918;BME280;75182;51.736;5.318;2024-03-29T07:16:04;99269.22;;;14.89;50.00
84918;BME280;75182;51.736;5.318;2024-03-29T07:26:06;99280.91;;;14.90;49.71
84918;BME280;75182;51.736;5.318;2024-03-29T07:36:07;99289.66;;;14.96;49.77
84918;BME280;75182;51.736;5.318;2024-03-29T07:46:09;99291.59;;;14.93;50.09
84918;BME280;75182;51.736;5.318;2024-03-29T07:56:10;99299.69;;;14.93;50.47
84918;BME280;75182;51.736;5.318;2024-03-29T08:06:10;99292.50;;;14.93;51.44
84918;BME280;75182;51.736;5.318;2024-03-29T08:16:10;99280.00;;;14.91;51.42
84918;BME280;75182;51.736;5.318;2024-03-29T08:26:11;99277.78;;;15.02;51.41
84918;BME280;75182;51.736;5.318;2024-03-29T08:36:11;99302.06;;;15.02;51.00
84918;BME280;75182;51.736;5.318;2024-03-29T08:46:12;99294.47;;;15.13;50.76
84918;BME280;75182;51.736;5.318;2024-03-29T08:56:12;99303.31;;;15.18;51.21
84918;BME280;75182;51.736;5.318;2024-03-29T09:06:13;99323.56;;;15.30;51.54
84918;BME280;75182;51.736;5.318;2024-03-29T09:16:13;99302.69;;;15.35;52.33
84918;BME280;75182;51.736;5.318;2024-03-29T09:26:15;99316.00;;;15.41;51.12
84918;BME280;75182;51.736;5.318;2024-03-29T09:36:15;99307.34;;;15.31;52.01
84918;BME280;75182;51.736;5.318;2024-03-29T09:46:16;99339.63;;;15.34;51.49
84918;BME280;75182;51.736;5.318;2024-03-29T09:56:16;99353.88;;;15.38;51.26
84918;BME280;75182;51.736;5.318;2024-03-29T10:06:18;99343.00;;;15.41;51.80
84918;BME280;75182;51.736;5.318;2024-03-29T10:16:20;99332.63;;;15.54;52.36
84918;BME280;75182;51.736;5.318;2024-03-29T10:26:24;99347.06;;;15.78;54.12
84918;BME280;75182;51.736;5.318;2024-03-29T10:36:25;99351.47;;;16.05;52.58
84918;BME280;75182;51.736;5.318;2024-03-29T10:46:25;99338.81;;;16.29;52.82
84918;BME280;75182;51.736;5.318;2024-03-29T10:56:26;99367.13;;;16.42;52.71
84918;BME280;75182;51.736;5.318;2024-03-29T11:06:28;99388.31;;;16.54;52.77
84918;BME280;75182;51.736;5.318;2024-03-29T11:16:31;99351.47;;;16.74;52.16
84918;BME280;75182;51.736;5.318;2024-03-29T11:26:31;99346.22;;;16.91;52.83
84918;BME280;75182;51.736;5.318;2024-03-29T11:36:31;99359.06;;;17.08;51.03
84918;BME280;75182;51.736;5.318;2024-03-29T11:46:32;99381.91;;;17.23;50.44
84918;BME280;75182;51.736;5.318;2024-03-29T11:56:36;99372.66;;;17.28;48.78
84918;BME280;75182;51.736;5.318;2024-03-29T12:06:37;99392.03;;;17.40;48.46
84918;BME280;75182;51.736;5.318;2024-03-29T12:16:44;99378.69;;;17.35;51.31
84918;BME280;75182;51.736;5.318;2024-03-29T12:26:48;99395.75;;;17.37;50.49
84918;BME280;75182;51.736;5.318;2024-03-29T12:36:49;99387.47;;;17.40;49.43
84918;BME280;75182;51.736;5.318;2024-03-29T12:46:49;99388.34;;;17.41;48.98
84918;BME280;75182;51.736;5.318;2024-03-29T12:56:50;99394.31;;;17.49;47.96
84918;BME280;75182;51.736;5.318;2024-03-29T13:06:50;99401.56;;;17.48;47.69
84918;BME280;75182;51.736;5.318;2024-03-29T13:16:50;99390.63;;;17.51;49.27
84918;BME280;75182;51.736;5.318;2024-03-29T13:26:51;99390.41;;;17.56;46.92
84918;BME280;75182;51.736;5.318;2024-03-29T13:36:51;99410.25;;;17.56;46.88
84918;BME280;75182;51.736;5.318;2024-03-29T13:46:52;99426.41;;;17.59;46.09
84918;BME280;75182;51.736;5.318;2024-03-29T13:56:53;99432.75;;;17.58;46.01
84918;BME280;75182;51.736;5.318;2024-03-29T14:06:53;99436.94;;;17.65;46.12
84918;BME280;75182;51.736;5.318;2024-03-29T14:16:53;99441.38;;;17.68;47.04
84918;BME280;75182;51.736;5.318;2024-03-29T14:26:53;99423.78;;;17.78;47.73
84918;BME280;75182;51.736;5.318;2024-03-29T14:36:54;99414.56;;;17.82;47.80
84918;BME280;75182;51.736;5.318;2024-03-29T14:46:54;99439.19;;;17.78;48.51
84918;BME280;75182;51.736;5.318;2024-03-29T14:56:54;99433.59;;;17.81;43.38
84918;BME280;75182;51.736;5.318;2024-03-29T15:06:55;99428.06;;;17.84;42.06
84918;BME280;75182;51.736;5.318;2024-03-29T15:16:55;99437.34;;;17.99;42.16
84918;BME280;75182;51.736;5.318;2024-03-29T15:26:55;99430.91;;;18.01;42.13
84918;BME280;75182;51.736;5.318;2024-03-29T15:36:58;99433.75;;;17.98;43.66
84918;BME280;75182;51.736;5.318;2024-03-29T15:46:58;99443.63;;;17.99;44.75
84918;BME280;75182;51.736;5.318;2024-03-29T15:56:58;99473.75;;;17.93;40.84
84918;BME280;75182;51.736;5.318;2024-03-29T16:07:00;99483.50;;;17.97;42.16
84918;BME280;75182;51.736;5.318;2024-03-29T16:17:00;99478.63;;;18.05;42.77
84918;BME280;75182;51.736;5.318;2024-03-29T16:27:00;99484.13;;;18.04;44.83
84918;BME280;75182;51.736;5.318;2024-03-29T16:37:04;99481.34;;;18.05;44.32
84918;BME280;75182;51.736;5.318;2024-03-29T16:47:04;99469.81;;;18.00;45.04
84918;BME280;75182;51.736;5.318;2024-03-29T16:57:04;99484.91;;;18.06;45.11
84918;BME280;75182;51.736;5.318;2024-03-29T17:07:05;99490.41;;;18.04;46.21
84918;BME280;75182;51.736;5.318;2024-03-29T17:17:06;99479.56;;;18.04;44.55
84918;BME280;75182;51.736;5.318;2024-03-29T17:27:06;99492.00;;;18.10;45.31
84918;BME280;75182;51.736;5.318;2024-03-29T17:37:06;99486.91;;;18.02;46.82
84918;BME280;75182;51.736;5.318;2024-03-29T17:47:08;99511.16;;;18.05;46.58
84918;BME280;75182;51.736;5.318;2024-03-29T17:57:09;99527.44;;;18.05;47.18
84918;BME280;75182;51.736;5.318;2024-03-29T18:07:09;99537.53;;;18.02;47.12
84918;BME280;75182;51.736;5.318;2024-03-29T18:17:09;99533.00;;;18.02;47.13
84918;BME280;75182;51.736;5.318;2024-03-29T18:27:09;99540.25;;;18.02;47.46
84918;BME280;75182;51.736;5.318;2024-03-29T18:37:10;99545.75;;;18.00;47.16
84918;BME280;75182;51.736;5.318;2024-03-29T18:47:10;99544.84;;;18.00;47.17
84918;BME280;75182;51.736;5.318;2024-03-29T18:57:10;99566.59;;;17.98;46.96
84918;BME280;75182;51.736;5.318;2024-03-29T19:07:10;99568.59;;;17.95;46.82
84918;BME280;75182;51.736;5.318;2024-03-29T19:17:11;99575.84;;;17.94;47.16
84918;BME280;75182;51.736;5.318;2024-03-29T19:27:11;99582.25;;;17.91;47.23
84918;BME280;75182;51.736;5.318;2024-03-29T19:37:11;99601.28;;;17.90;47.34
84918;BME280;75182;51.736;5.318;2024-03-29T19:47:12;99624.00;;;17.87;47.14
84918;BME280;75182;51.736;5.318;2024-03-29T19:57:12;99622.25;;;17.86;47.18
84918;BME280;75182;51.736;5.318;2024-03-29T20:07:12;99622.31;;;17.85;47.48
84918;BME280;75182;51.736;5.318;2024-03-29T20:17:12;99633.19;;;17.83;47.15
84918;BME280;75182;51.736;5.318;2024-03-29T20:27:13;99623.50;;;17.78;47.75
84918;BME280;75182;51.736;5.318;2024-03-29T20:37:13;99639.69;;;17.79;47.74
84918;BME280;75182;51.736;5.318;2024-03-29T20:47:14;99643.44;;;17.77;47.96
84918;BME280;75182;51.736;5.318;2024-03-29T20:57:14;99657.03;;;17.75;48.07
84918;BME280;75182;51.736;5.318;2024-03-29T21:07:15;99668.81;;;17.74;47.89
84918;BME280;75182;51.736;5.318;2024-03-29T21:17:16;99697.88;;;17.71;48.36
84918;BME280;75182;51.736;5.318;2024-03-29T21:27:17;99711.47;;;17.69;48.27
84918;BME280;75182;51.736;5.318;2024-03-29T21:37:18;99705.41;;;17.62;48.33
84918;BME280;75182;51.736;5.318;2024-03-29T21:47:18;99721.44;;;17.69;48.53
84918;BME280;75182;51.736;5.318;2024-03-29T21:57:18;99734.25;;;17.63;48.44
84918;BME280;75182;51.736;5.318;2024-03-29T22:07:19;99750.38;;;17.66;48.75
84918;BME280;75182;51.736;5.318;2024-03-29T22:17:19;99754.31;;;17.59;48.93
84918;BME280;75182;51.736;5.318;2024-03-29T22:27:19;99769.72;;;17.57;48.79
84918;BME280;75182;51.736;5.318;2024-03-29T22:37:19;99760.84;;;17.54;48.25
84918;BME280;75182;51.736;5.318;2024-03-29T22:47:20;99770.78;;;17.53;47.87
84918;BME280;75182;51.736;5.318;2024-03-29T22:57:20;99778.19;;;17.48;47.22
84918;BME280;75182;51.736;5.318;2024-03-29T23:07:20;99767.56;;;17.42;47.25
84918;BME280;75182;51.736;5.318;2024-03-29T23:17:22;99760.44;;;17.40;47.23
84918;BME280;75182;51.736;5.318;2024-03-29T23:27:22;99756.19;;;17.32;48.18
84918;BME280;75182;51.736;5.318;2024-03-29T23:37:23;99762.50;;;17.33;47.87
84918;BME280;75182;51.736;5.318;2024-03-29T23:47:23;99760.84;;;17.29;48.27
84918;BME280;75182;51.736;5.318;2024-03-29T23:57:23;99757.25;;;17.28;48.00
